Time,TemperatureF,DewpointF,PressureIn,WindDirection,WindDirectionDegrees,WindSpeedMPH,WindSpeedGustMPH,Humidity,HourlyPrecipIn,Conditions,Clouds,dailyrainin,SoftwareType,DateUTC
2013-10-16 00:13:00,47.0,46.0,29.94,East,80,1.0,5.0,97,0.00,,,0.43,,2013-10-16 05:13:00,
2013-10-16 00:22:00,47.0,46.0,29.94,East,80,1.0,5.0,97,0.00,,,0.43,,2013-10-16 05:22:00,
2013-10-16 00:43:00,47.0,46.0,29.94,East,79,2.0,5.0,97,0.00,,,0.43,,2013-10-16 05:43:00,
2013-10-16 00:53:00,47.0,46.0,29.94,East,79,2.0,5.0,97,0.00,,,0.43,,2013-10-16 05:53:00,
2013-10-16 01:12:00,48.0,47.0,29.94,East,79,2.0,5.0,97,0.00,,,0.43,,2013-10-16 06:12:00,
2013-10-16 01:22:00,48.0,47.0,29.94,East,79,2.0,5.0,97,0.00,,,0.43,,2013-10-16 06:22:00,
2013-10-16 01:43:00,48.0,47.0,29.94,ENE,70,1.0,7.0,97,0.00,,,0.43,,2013-10-16 06:43:00,
2013-10-16 01:52:00,48.0,47.0,29.94,ENE,70,1.0,7.0,97,0.00,,,0.43,,2013-10-16 06:52:00,
2013-10-16 02:11:00,47.0,46.0,29.93,NNE,16,1.0,7.0,97,0.01,,,0.44,,2013-10-16 07:11:00,
2013-10-16 02:21:00,47.0,46.0,29.93,NNE,16,1.0,7.0,97,0.01,,,0.44,,2013-10-16 07:21:00,
2013-10-16 02:42:00,47.0,46.0,29.88,North,0,0.0,6.0,98,0.01,,,0.44,,2013-10-16 07:42:00,
2013-10-16 02:53:00,47.0,46.0,29.88,North,0,0.0,6.0,98,0.01,,,0.44,,2013-10-16 07:53:00,
2013-10-16 03:11:00,47.0,46.0,29.93,ESE,106,0.0,2.0,98,0.00,,,0.44,,2013-10-16 08:11:00,
2013-10-16 03:21:00,47.0,46.0,29.93,ESE,106,0.0,2.0,98,0.00,,,0.44,,2013-10-16 08:21:00,
2013-10-16 03:42:00,47.0,46.0,29.88,North,0,0.0,0.0,98,0.00,,,0.42,,2013-10-16 08:42:00,
2013-10-16 03:52:00,47.0,46.0,29.88,North,0,0.0,0.0,98,0.00,,,0.42,,2013-10-16 08:52:00,
2013-10-16 04:11:00,47.0,46.0,29.93,SE,141,1.0,3.0,97,0.00,,,0.42,,2013-10-16 09:11:00,
2013-10-16 04:22:00,47.0,46.0,29.93,SE,141,1.0,3.0,97,0.00,,,0.42,,2013-10-16 09:22:00,
2013-10-16 04:43:00,47.0,46.0,29.93,SE,141,2.0,6.0,98,0.00,,,0.38,,2013-10-16 09:43:00,
2013-10-16 04:54:00,47.0,46.0,29.93,SE,141,2.0,6.0,98,0.00,,,0.38,,2013-10-16 09:54:00,
2013-10-16 05:13:00,47.0,46.0,29.93,SE,141,0.0,2.0,98,0.00,,,0.38,,2013-10-16 10:13:00,
2013-10-16 05:23:00,47.0,46.0,29.93,SE,141,0.0,2.0,98,0.00,,,0.38,,2013-10-16 10:23:00,
2013-10-16 05:42:00,47.0,46.0,29.93,SE,141,0.0,2.0,98,0.00,,,0.37,,2013-10-16 10:42:00,
2013-10-16 05:53:00,47.0,46.0,29.93,SE,141,0.0,2.0,98,0.00,,,0.37,,2013-10-16 10:53:00,
2013-10-16 06:12:00,47.0,46.0,29.93,SE,140,0.0,5.0,98,0.00,,,0.36,,2013-10-16 11:12:00,
2013-10-16 06:22:00,47.0,46.0,29.93,SE,140,0.0,5.0,98,0.00,,,0.36,,2013-10-16 11:22:00,
2013-10-16 06:42:00,47.0,46.0,29.94,SE,140,0.0,3.0,98,0.00,,,0.34,,2013-10-16 11:42:00,
2013-10-16 06:52:00,47.0,46.0,29.94,SE,140,0.0,3.0,98,0.00,,,0.34,,2013-10-16 11:52:00,
2013-10-16 07:12:00,47.0,46.0,29.95,SE,140,0.0,2.0,98,0.00,,,0.34,,2013-10-16 12:12:00,
2013-10-16 07:21:00,47.0,46.0,29.95,SE,140,0.0,2.0,98,0.00,,,0.34,,2013-10-16 12:21:00,
2013-10-16 07:43:00,47.0,46.0,29.95,SE,141,0.0,3.0,98,0.00,,,0.32,,2013-10-16 12:43:00,
2013-10-16 07:52:00,47.0,46.0,29.95,SE,141,0.0,3.0,98,0.00,,,0.32,,2013-10-16 12:52:00,
2013-10-16 08:12:00,47.0,46.0,29.96,SE,141,1.0,2.0,98,0.00,,,0.32,,2013-10-16 13:12:00,
2013-10-16 08:22:00,47.0,46.0,29.96,SE,141,1.0,2.0,98,0.00,,,0.32,,2013-10-16 13:22:00,
2013-10-16 08:42:00,47.0,46.0,29.96,SE,141,0.0,2.0,98,0.00,,,0.31,,2013-10-16 13:42:00,
2013-10-16 08:52:00,47.0,46.0,29.96,SE,141,0.0,2.0,98,0.00,,,0.31,,2013-10-16 13:52:00,
2013-10-16 09:11:00,47.0,46.0,30.00,SE,141,0.0,2.0,98,0.00,,,0.31,,2013-10-16 14:11:00,
2013-10-16 09:22:00,47.0,46.0,30.00,SE,141,0.0,2.0,98,0.00,,,0.31,,2013-10-16 14:22:00,
2013-10-16 09:42:00,48.0,48.0,30.00,SE,131,1.0,5.0,99,0.00,,,0.31,,2013-10-16 14:42:00,
2013-10-16 09:52:00,48.0,48.0,30.00,SE,131,1.0,5.0,99,0.00,,,0.31,,2013-10-16 14:52:00,
2013-10-16 10:11:00,42.0,41.0,30.06,SE,126,1.0,5.0,98,0.00,,,0.28,,2013-10-16 15:11:00,
2013-10-16 10:22:00,42.0,41.0,30.06,SE,126,1.0,5.0,98,0.00,,,0.28,,2013-10-16 15:22:00,
2013-10-16 10:43:00,41.0,40.0,30.06,SE,126,0.0,5.0,98,0.00,,,0.25,,2013-10-16 15:43:00,
2013-10-16 10:53:00,41.0,40.0,30.06,SE,126,0.0,5.0,98,0.00,,,0.25,,2013-10-16 15:53:00,
2013-10-16 11:13:00,43.0,42.0,30.06,ESE,103,2.0,6.0,98,0.00,,,0.24,,2013-10-16 16:13:00,
2013-10-16 11:23:00,43.0,42.0,30.06,ESE,103,2.0,6.0,98,0.00,,,0.24,,2013-10-16 16:23:00,
2013-10-16 11:42:00,47.0,46.0,30.04,North,10,2.0,5.0,98,0.00,,,0.24,,2013-10-16 16:42:00,
2013-10-16 11:53:00,47.0,46.0,30.04,North,10,2.0,5.0,98,0.00,,,0.24,,2013-10-16 16:53:00,
2013-10-16 12:12:00,55.0,54.0,29.97,East,100,3.0,7.0,98,0.00,,,0.24,,2013-10-16 17:12:00,
2013-10-16 12:22:00,55.0,54.0,29.97,East,100,3.0,7.0,98,0.00,,,0.24,,2013-10-16 17:22:00,
2013-10-16 12:43:00,55.0,54.0,29.97,SSE,154,5.0,9.0,96,0.00,,,0.24,,2013-10-16 17:43:00,
2013-10-16 12:52:00,55.0,54.0,29.97,SSE,154,5.0,9.0,96,0.00,,,0.24,,2013-10-16 17:52:00,
2013-10-16 13:11:00,58.0,54.0,29.95,SE,143,2.0,8.0,86,0.00,,,0.24,,2013-10-16 18:11:00,
2013-10-16 15:52:00,66.0,49.0,29.85,NW,309,6.0,20.0,54,0.00,,,0.20,,2013-10-16 20:52:00,
2013-10-16 16:11:00,64.0,47.0,29.77,WNW,296,5.0,13.0,54,0.00,,,0.17,,2013-10-16 21:11:00,
2013-10-16 16:23:00,64.0,47.0,29.77,WNW,296,5.0,13.0,54,0.00,,,0.17,,2013-10-16 21:23:00,
2013-10-16 16:44:00,64.0,47.0,29.76,SW,234,6.0,14.0,53,0.00,,,0.15,,2013-10-16 21:44:00,
2013-10-16 16:54:00,64.0,47.0,29.76,SW,234,6.0,14.0,53,0.00,,,0.15,,2013-10-16 21:54:00,
2013-10-16 17:14:00,66.0,48.0,29.85,SSW,200,3.0,14.0,52,0.00,,,0.11,,2013-10-16 22:14:00,
2013-10-16 17:24:00,66.0,48.0,29.85,SSW,200,3.0,14.0,52,0.00,,,0.11,,2013-10-16 22:24:00,
2013-10-16 17:42:00,66.0,47.0,29.85,SW,217,3.0,12.0,50,0.00,,,0.06,,2013-10-16 22:42:00,
2013-10-16 17:54:00,66.0,47.0,29.85,SW,217,3.0,12.0,50,0.00,,,0.06,,2013-10-16 22:54:00,
2013-10-16 18:12:00,65.0,45.0,29.85,SW,222,5.0,13.0,49,0.00,,,0.03,,2013-10-16 23:12:00,
2013-10-16 18:22:00,65.0,45.0,29.85,SW,222,5.0,13.0,49,0.00,,,0.03,,2013-10-16 23:22:00,
2013-10-16 18:42:00,65.0,44.0,29.86,WSW,237,6.0,13.0,46,0.00,,,0.01,,2013-10-16 23:42:00,
2013-10-16 18:53:00,65.0,44.0,29.86,WSW,237,6.0,13.0,46,0.00,,,0.01,,2013-10-16 23:53:00,
2013-10-16 19:12:00,62.0,45.0,29.88,SW,233,4.0,12.0,54,0.00,,,0.01,,2013-10-17 00:12:00,
2013-10-16 19:22:00,62.0,45.0,29.88,SW,233,4.0,12.0,54,0.00,,,0.01,,2013-10-17 00:22:00,
2013-10-16 19:42:00,60.0,46.0,29.90,SSW,202,1.0,8.0,60,0.00,,,0.01,,2013-10-17 00:42:00,
2013-10-16 19:52:00,60.0,46.0,29.90,SSW,202,1.0,8.0,60,0.00,,,0.01,,2013-10-17 00:52:00,
2013-10-16 20:12:00,56.0,47.0,29.94,SSW,202,0.0,3.0,73,0.00,,,0.01,,2013-10-17 01:12:00,
2013-10-16 20:22:00,56.0,47.0,29.94,SSW,202,0.0,3.0,73,0.00,,,0.01,,2013-10-17 01:22:00,
2013-10-16 20:43:00,52.0,47.0,29.96,SSW,202,1.0,2.0,82,0.00,,,0.01,,2013-10-17 01:43:00,
2013-10-16 20:52:00,52.0,47.0,29.96,SSW,202,1.0,2.0,82,0.00,,,0.01,,2013-10-17 01:52:00,
2013-10-16 21:12:00,51.0,46.0,29.98,SSW,212,0.0,6.0,83,0.00,,,0.01,,2013-10-17 02:12:00,
2013-10-16 21:22:00,51.0,46.0,29.98,SSW,212,0.0,6.0,83,0.00,,,0.01,,2013-10-17 02:22:00,
2013-10-16 21:53:00,48.0,44.0,30.00,SSW,212,0.0,0.0,87,0.00,,,0.01,,2013-10-17 02:53:00,
2013-10-16 22:12:00,47.0,44.0,30.06,SSW,212,0.0,1.0,90,0.00,,,0.01,,2013-10-17 03:12:00,
2013-10-16 22:22:00,47.0,44.0,30.06,SSW,212,0.0,1.0,90,0.00,,,0.01,,2013-10-17 03:22:00,
2013-10-16 22:45:00,45.0,43.0,30.08,SSW,212,0.0,0.0,91,0.00,,,0.01,,2013-10-17 03:45:00,
2013-10-16 22:54:00,45.0,43.0,30.08,SSW,212,0.0,0.0,91,0.00,,,0.01,,2013-10-17 03:54:00,
2013-10-16 23:14:00,45.0,43.0,30.01,SSW,212,0.0,2.0,92,0.00,,,0.01,,2013-10-17 04:14:00,
2013-10-16 23:24:00,45.0,43.0,30.01,SSW,212,0.0,2.0,92,0.00,,,0.01,,2013-10-17 04:24:00,
2013-10-16 23:43:00,44.0,42.0,30.03,SSW,212,0.0,0.0,93,0.00,,,0.01,,2013-10-17 04:43:00,
2013-10-16 23:54:00,44.0,42.0,30.03,SSW,212,0.0,0.0,93,0.00,,,0.01,,2013-10-17 04:54:00,